Time;durP1;ratioP1;P1;durP2;ratioP2;P2;SDS_P1;SDS_P2;PMS_P1;PMS_P2;Temp;Humidity;BMP_temperature;BMP_pressure;BME280_temperature;BME280_humidity;BME280_pressure;Samples;Min_cycle;Max_cycle;Signal;HPM_P1;HPM_P2
2023/03/22 05:00:23;;;;;;;5.22;4.82;;;9.40;99.90;;;;;;5810404;23;20430;-70
2023/03/22 05:02:50;;;;;;;4.68;4.10;;;9.30;99.90;;;;;;4910823;29;20222;-69
2023/03/22 05:05:17;;;;;;;4.95;4.65;;;9.40;99.90;;;;;;4913968;29;20218;-69
2023/03/22 05:07:44;;;;;;;7.22;4.05;;;9.40;99.90;;;;;;4914461;29;20210;-70
2023/03/22 05:10:11;;;;;;;9.13;4.63;;;9.30;99.90;;;;;;4915612;29;20202;-68
2023/03/22 05:12:38;;;;;;;2.90;2.72;;;9.40;99.90;;;;;;4915783;29;20211;-69
2023/03/22 05:15:06;;;;;;;5.13;4.22;;;9.30;99.90;;;;;;4912999;29;20211;-69
2023/03/22 05:17:34;;;;;;;4.82;4.40;;;9.30;99.90;;;;;;4913568;29;20202;-69
2023/03/22 05:20:08;;;;;;;8.55;4.10;;;9.30;99.90;;;;;;4926362;29;20298;-70
2023/03/22 05:22:36;;;;;;;5.72;3.83;;;9.30;99.90;;;;;;4918263;29;20231;-70
2023/03/22 05:25:04;;;;;;;5.38;3.92;;;9.30;99.90;;;;;;4915959;29;20207;-70
2023/03/22 05:27:33;;;;;;;5.55;4.05;;;9.30;99.90;;;;;;4931848;29;20201;-70
2023/03/22 05:30:00;;;;;;;5.38;4.97;;;9.30;99.90;;;;;;4914139;29;20210;-69
2023/03/22 05:32:28;;;;;;;7.50;4.00;;;9.30;99.90;;;;;;4910970;29;20231;-70
2023/03/22 05:34:56;;;;;;;3.80;2.88;;;9.30;99.90;;;;;;4902743;29;20311;-70
2023/03/22 05:37:23;;;;;;;7.18;2.95;;;9.30;99.90;;;;;;4919129;29;20202;-70
2023/03/22 05:39:50;;;;;;;5.20;3.47;;;9.30;99.90;;;;;;4911632;29;20241;-70
2023/03/22 05:42:16;;;;;;;3.88;3.58;;;9.30;99.90;;;;;;4906050;29;20708;-69
2023/03/22 05:44:43;;;;;;;5.88;3.63;;;9.30;99.90;;;;;;4908750;29;20210;-71
2023/03/22 05:47:10;;;;;;;5.85;5.40;;;9.30;99.90;;;;;;4922789;29;20586;-69
2023/03/22 05:49:37;;;;;;;4.18;3.90;;;9.40;99.90;;;;;;4921779;29;20623;-69
2023/03/22 05:52:06;;;;;;;7.82;4.47;;;9.40;99.90;;;;;;4911991;29;20346;-71
2023/03/22 05:54:32;;;;;;;6.45;4.60;;;9.50;99.90;;;;;;4910933;29;20207;-70
2023/03/22 05:56:59;;;;;;;7.25;2.38;;;9.50;99.90;;;;;;4922636;29;20225;-70
2023/03/22 05:59:26;;;;;;;3.63;3.33;;;9.50;99.90;;;;;;4905971;29;20238;-70
2023/03/22 06:01:53;;;;;;;3.72;2.67;;;9.60;99.90;;;;;;4911478;29;20245;-69
2023/03/22 06:04:20;;;;;;;8.90;3.55;;;9.60;99.90;;;;;;4905699;29;20687;-70
2023/03/22 06:06:47;;;;;;;4.82;3.35;;;9.60;99.90;;;;;;4921156;29;20210;-70
2023/03/22 06:09:15;;;;;;;5.55;4.50;;;9.70;99.90;;;;;;4913148;29;20206;-70
2023/03/22 06:11:42;;;;;;;7.88;5.18;;;9.70;99.90;;;;;;4922851;29;20233;-70
2023/03/22 06:14:09;;;;;;;6.88;4.22;;;9.70;99.90;;;;;;4902801;29;20306;-69
2023/03/22 06:16:36;;;;;;;6.57;4.18;;;9.70;99.90;;;;;;4927202;29;20300;-70
2023/03/22 06:19:02;;;;;;;5.15;3.72;;;9.70;99.90;;;;;;4905143;29;20558;-70
2023/03/22 06:21:29;;;;;;;7.22;4.22;;;9.80;99.90;;;;;;4917722;29;20617;-70
2023/03/22 06:23:56;;;;;;;3.25;2.97;;;9.80;99.90;;;;;;4899886;29;20218;-70
2023/03/22 06:26:24;;;;;;;2.85;2.63;;;9.80;99.90;;;;;;4913009;29;20226;-71
2023/03/22 06:28:50;;;;;;;9.35;5.03;;;9.80;99.90;;;;;;4919572;29;20210;-71
2023/03/22 06:31:17;;;;;;;5.43;4.95;;;9.80;99.90;;;;;;4919023;29;20222;-70
2023/03/22 06:33:44;;;;;;;4.93;3.92;;;9.90;99.90;;;;;;4912305;29;20218;-71
2023/03/22 06:36:11;;;;;;;7.75;2.88;;;10.00;99.90;;;;;;4911795;29;20235;-71
2023/03/22 06:38:38;;;;;;;5.97;5.40;;;10.10;99.90;;;;;;4923293;29;20210;-70
2023/03/22 06:41:05;;;;;;;22.60;11.95;;;10.10;99.90;;;;;;4919281;29;20234;-70
2023/03/22 06:43:33;;;;;;;25.77;13.43;;;10.20;99.90;;;;;;4909004;29;20218;-69
2023/03/22 06:45:59;;;;;;;6.50;5.80;;;10.30;99.90;;;;;;4922940;29;20240;-70
2023/03/22 06:48:26;;;;;;;7.93;6.35;;;10.40;99.90;;;;;;4906323;29;20221;-70
2023/03/22 06:50:53;;;;;;;8.02;7.22;;;10.50;99.90;;;;;;4912541;29;20238;-69
2023/03/22 06:53:20;;;;;;;10.15;7.05;;;10.60;99.90;;;;;;4903748;29;20307;-69
2023/03/22 06:55:47;;;;;;;15.70;10.15;;;10.70;99.90;;;;;;4917446;29;20207;-70
2023/03/22 06:58:14;;;;;;;16.40;10.50;;;10.80;99.90;;;;;;4917660;29;20211;-70
2023/03/22 07:00:42;;;;;;;14.25;11.30;;;10.90;99.90;;;;;;4918294;29;20247;-70
2023/03/22 07:03:08;;;;;;;14.13;8.30;;;11.00;99.90;;;;;;4927925;29;20210;-70
2023/03/22 07:05:35;;;;;;;17.97;10.30;;;11.10;99.90;;;;;;4909161;29;20218;-71
2023/03/22 07:08:03;;;;;;;16.33;8.70;;;11.20;99.90;;;;;;4916780;29;20469;-69
2023/03/22 07:10:30;;;;;;;10.43;7.07;;;11.20;99.90;;;;;;4913068;29;20481;-70
2023/03/22 07:12:56;;;;;;;6.00;5.13;;;11.20;99.90;;;;;;4903305;29;20494;-70
2023/03/22 07:15:24;;;;;;;8.63;7.83;;;11.20;99.90;;;;;;4929949;29;20575;-70
2023/03/22 07:17:52;;;;;;;15.23;8.43;;;11.20;99.90;;;;;;4919919;29;20967;-70
2023/03/22 07:20:19;;;;;;;10.93;7.27;;;11.20;99.90;;;;;;4913594;29;20498;-69
2023/03/22 07:22:46;;;;;;;6.17;4.30;;;11.30;99.90;;;;;;4906803;29;20489;-69
2023/03/22 07:25:13;;;;;;;5.07;4.77;;;11.30;99.90;;;;;;4917641;29;20466;-69
2023/03/22 07:27:39;;;;;;;8.73;6.87;;;11.30;99.90;;;;;;4910318;29;20477;-68
2023/03/22 07:30:08;;;;;;;9.30;6.67;;;11.30;99.90;;;;;;4921102;29;20475;-71
2023/03/22 07:32:34;;;;;;;5.70;3.70;;;11.30;99.90;;;;;;4904732;29;20510;-70
2023/03/22 07:35:03;;;;;;;10.67;6.83;;;11.40;99.90;;;;;;4916506;29;20469;-70
2023/03/22 07:37:29;;;;;;;4.73;4.23;;;11.50;99.90;;;;;;4922330;29;20469;-70
2023/03/22 07:39:56;;;;;;;8.23;5.20;;;11.50;99.90;;;;;;4918692;29;20465;-70
2023/03/22 07:42:23;;;;;;;10.70;6.50;;;11.50;99.90;;;;;;4908037;29;20498;-69
2023/03/22 07:44:49;;;;;;;5.60;5.10;;;11.50;99.90;;;;;;4914381;29;20572;-70
2023/03/22 07:47:16;;;;;;;8.47;5.47;;;11.50;99.90;;;;;;4916321;29;20503;-70
2023/03/22 07:49:43;;;;;;;6.60;6.00;;;11.50;99.90;;;;;;4902504;29;20582;-69
2023/03/22 07:52:11;;;;;;;3.50;3.30;;;11.50;99.90;;;;;;4909703;29;21007;-70
2023/03/22 07:54:38;;;;;;;5.90;4.93;;;11.60;99.90;;;;;;4921209;29;20483;-70
2023/03/22 07:57:05;;;;;;;4.40;3.50;;;11.60;99.90;;;;;;4918590;29;20211;-70
2023/03/22 07:59:32;;;;;;;7.73;4.17;;;11.60;99.90;;;;;;4909667;29;20591;-70
2023/03/22 08:01:59;;;;;;;4.43;4.03;;;11.70;99.90;;;;;;4927779;29;20497;-70
2023/03/22 08:04:26;;;;;;;5.23;4.53;;;11.70;99.90;;;;;;4920579;29;20564;-69
2023/03/22 08:06:57;;;;;;;4.10;3.37;;;11.80;99.90;;;;;;4918403;29;20471;-70
2023/03/22 08:09:26;;;;;;;7.50;4.87;;;11.90;99.90;;;;;;4913495;29;20478;-69
2023/03/22 08:11:53;;;;;;;5.53;3.87;;;12.00;99.90;;;;;;4920400;29;20501;-70
2023/03/22 08:14:19;;;;;;;9.60;4.97;;;12.10;99.90;;;;;;4906440;29;20507;-71
2023/03/22 08:16:46;;;;;;;4.00;3.70;;;12.10;99.90;;;;;;4916873;29;20469;-68
2023/03/22 08:19:13;;;;;;;5.57;5.03;;;12.20;99.90;;;;;;4916500;29;20858;-69
2023/03/22 08:21:40;;;;;;;7.77;5.40;;;12.20;99.90;;;;;;4922527;29;20501;-68
2023/03/22 08:24:07;;;;;;;3.37;3.17;;;12.30;99.90;;;;;;4902794;29;20478;-68
2023/03/22 08:26:36;;;;;;;5.50;5.10;;;12.30;99.90;;;;;;4917330;29;20652;-67
2023/03/22 08:29:03;;;;;;;5.13;4.63;;;12.40;99.90;;;;;;4921660;29;20535;-68
2023/03/22 08:31:30;;;;;;;5.67;5.17;;;12.40;99.90;;;;;;4912604;29;20489;-69
2023/03/22 08:33:58;;;;;;;8.90;5.20;;;12.50;99.90;;;;;;4920062;29;20964;-69
2023/03/22 08:36:24;;;;;;;6.63;5.37;;;12.50;99.90;;;;;;4922582;29;20469;-68
2023/03/22 08:38:52;;;;;;;5.30;4.20;;;12.50;99.90;;;;;;4912235;29;20844;-69
2023/03/22 08:41:19;;;;;;;7.83;3.97;;;12.50;99.90;;;;;;4915827;29;20501;-69
2023/03/22 08:43:47;;;;;;;4.10;3.80;;;12.60;99.90;;;;;;4911753;29;20498;-68
2023/03/22 08:46:14;;;;;;;5.33;4.50;;;12.60;99.90;;;;;;4909386;29;20468;-70
2023/03/22 08:48:41;;;;;;;4.10;3.73;;;12.60;99.90;;;;;;4912581;29;20511;-67
2023/03/22 08:51:07;;;;;;;4.90;4.60;;;12.60;99.90;;;;;;4908688;29;20499;-68
2023/03/22 08:53:34;;;;;;;5.60;4.37;;;12.70;99.90;;;;;;4906573;29;20470;-68
2023/03/22 08:56:02;;;;;;;7.60;5.63;;;12.80;99.90;;;;;;4911541;29;20853;-68
2023/03/22 08:58:29;;;;;;;7.17;4.87;;;12.80;99.90;;;;;;4919096;29;20475;-68
2023/03/22 09:00:57;;;;;;;5.90;4.10;;;12.80;99.90;;;;;;4904845;29;20510;-65
2023/03/22 09:03:24;;;;;;;3.33;3.10;;;12.80;99.90;;;;;;4908820;29;20850;-69
2023/03/22 09:05:51;;;;;;;7.50;4.00;;;12.90;99.90;;;;;;4912238;29;20458;-69
2023/03/22 09:08:18;;;;;;;3.23;2.60;;;13.00;99.90;;;;;;4918490;29;20472;-68
2023/03/22 09:10:46;;;;;;;3.50;3.30;;;13.10;99.90;;;;;;4904449;29;20494;-68
2023/03/22 09:13:15;;;;;;;8.17;5.03;;;13.20;99.90;;;;;;4905396;29;20479;-65
2023/03/22 09:15:43;;;;;;;6.10;3.27;;;13.30;99.90;;;;;;4913266;29;20474;-68
2023/03/22 09:18:11;;;;;;;8.07;3.30;;;13.40;99.90;;;;;;4915683;29;20553;-68
2023/03/22 09:20:39;;;;;;;5.03;4.60;;;13.60;99.90;;;;;;4924878;29;20495;-69
2023/03/22 09:23:06;;;;;;;4.20;3.90;;;13.70;99.90;;;;;;4918976;29;20732;-68
2023/03/22 09:25:33;;;;;;;4.47;3.83;;;13.70;99.90;;;;;;4912132;29;20479;-68
2023/03/22 09:27:59;;;;;;;2.77;2.57;;;13.80;99.90;;;;;;4913362;29;20466;-67
2023/03/22 09:30:26;;;;;;;4.03;2.87;;;13.80;99.90;;;;;;4932961;29;20465;-68
2023/03/22 09:32:53;;;;;;;5.87;4.10;;;13.90;99.90;;;;;;4910536;29;20756;-69
2023/03/22 09:35:22;;;;;;;2.87;2.77;;;13.90;99.90;;;;;;4912098;29;20552;-67
2023/03/22 09:37:52;;;;;;;2.63;2.40;;;13.90;99.90;;;;;;4907095;29;20466;-68
2023/03/22 09:40:18;;;;;;;7.10;3.17;;;14.00;99.90;;;;;;4909219;29;20962;-68
2023/03/22 09:42:48;;;;;;;3.30;3.10;;;14.00;99.90;;;;;;4908745;29;20499;-68
2023/03/22 09:45:18;;;;;;;13.23;5.27;;;14.10;99.90;;;;;;4916143;29;20470;-68
2023/03/22 09:47:49;;;;;;;3.17;2.90;;;14.20;99.90;;;;;;4905054;29;20489;-68
2023/03/22 09:50:20;;;;;;;2.63;2.43;;;14.20;99.90;;;;;;4928542;29;20712;-68
2023/03/22 09:52:49;;;;;;;3.73;2.67;;;14.20;99.90;;;;;;4909613;29;20471;-69
2023/03/22 09:55:24;;;;;;;2.50;2.30;;;14.30;99.90;;;;;;4903018;29;20475;-69
2023/03/22 09:58:01;;;;;;;3.70;2.37;;;14.40;99.90;;;;;;4917657;29;20473;-68
2023/03/22 10:00:37;;;;;;;6.10;3.47;;;14.60;99.90;;;;;;4914816;29;20480;-68
2023/03/22 10:03:16;;;;;;;1.67;1.60;;;14.70;99.90;;;;;;4918034;29;20506;-68
2023/03/22 10:05:49;;;;;;;2.17;1.97;;;14.70;99.90;;;;;;4920633;29;20970;-66
2023/03/22 10:08:33;;;;;;;2.83;1.30;;;14.80;99.90;;;;;;4912463;29;20569;-68
2023/03/22 10:11:00;;;;;;;1.57;1.50;;;14.80;99.90;;;;;;4904115;29;20513;-67
2023/03/22 10:13:35;;;;;;;2.30;1.73;;;15.00;99.90;;;;;;4910550;29;20477;-65
2023/03/22 10:16:03;;;;;;;1.83;1.73;;;15.10;99.90;;;;;;4910673;29;20467;-68
2023/03/22 10:18:35;;;;;;;3.60;1.67;;;15.20;99.90;;;;;;4903589;29;20480;-68
2023/03/22 10:21:03;;;;;;;3.37;2.30;;;15.20;99.90;;;;;;4911269;29;20492;-68
2023/03/22 10:23:37;;;;;;;1.30;1.20;;;15.20;99.90;;;;;;4894726;29;20472;-68
2023/03/22 10:26:06;;;;;;;1.20;1.20;;;15.20;99.90;;;;;;4907686;29;20494;-68
2023/03/22 10:28:39;;;;;;;2.53;1.13;;;15.20;99.90;;;;;;4920043;29;20470;-68
2023/03/22 10:31:06;;;;;;;0.83;0.70;;;15.20;99.90;;;;;;4901841;29;20510;-67
2023/03/22 10:33:48;;;;;;;1.60;1.23;;;15.10;99.90;;;;;;4912169;29;20477;-68
2023/03/22 10:36:17;;;;;;;5.00;1.07;;;15.00;99.90;;;;;;4914989;29;20466;-67
2023/03/22 10:38:49;;;;;;;1.20;1.07;;;15.00;99.90;;;;;;4915951;29;20496;-67
2023/03/22 10:41:18;;;;;;;0.90;0.90;;;15.00;99.90;;;;;;4922211;29;20568;-68
2023/03/22 10:43:48;;;;;;;1.13;1.03;;;15.00;99.90;;;;;;4902626;29;20478;-69
2023/03/22 10:46:20;;;;;;;4.90;1.67;;;15.00;99.90;;;;;;4914186;29;20473;-68
2023/03/22 10:48:49;;;;;;;1.63;1.50;;;15.10;99.90;;;;;;4906819;29;20478;-70
2023/03/22 10:51:22;;;;;;;1.93;1.77;;;15.10;99.90;;;;;;4917879;29;20485;-68
2023/03/22 10:53:53;;;;;;;1.70;0.77;;;15.10;99.90;;;;;;4924131;29;20480;-68
2023/03/22 10:56:20;;;;;;;1.43;1.03;;;15.10;99.90;;;;;;4918615;29;20466;-68
2023/03/22 10:58:48;;;;;;;1.00;1.00;;;15.10;99.90;;;;;;4932605;29;20963;-69
2023/03/22 11:01:23;;;;;;;2.00;0.60;;;15.20;99.90;;;;;;4916205;29;20500;-69
2023/03/22 11:03:51;;;;;;;1.20;1.10;;;15.40;99.90;;;;;;4913320;29;20479;-68
2023/03/22 11:06:20;;;;;;;0.60;0.60;;;15.40;99.90;;;;;;4917443;29;20470;-67
2023/03/22 11:08:49;;;;;;;0.97;0.80;;;15.50;99.90;;;;;;4914259;29;20529;-68
2023/03/22 11:11:24;;;;;;;1.17;0.80;;;15.50;99.90;;;;;;4898985;29;20490;-68
2023/03/22 11:13:55;;;;;;;1.00;1.00;;;15.50;99.90;;;;;;4906857;29;20480;-68
2023/03/22 11:16:23;;;;;;;0.73;0.73;;;15.50;99.90;;;;;;4924649;29;20804;-68
2023/03/22 11:18:50;;;;;;;1.00;1.00;;;15.60;99.90;;;;;;4934698;23;20506;-69
2023/03/22 11:21:18;;;;;;;5.53;3.27;;;15.50;99.90;;;;;;4889891;29;20471;-68
2023/03/22 11:23:56;;;;;;;4.03;0.90;;;15.40;99.90;;;;;;4894194;29;20483;-70
2023/03/22 11:26:33;;;;;;;0.90;0.90;;;15.40;99.90;;;;;;4901054;29;20471;-69
2023/03/22 11:29:05;;;;;;;1.20;1.20;;;15.50;99.90;;;;;;4891611;29;20524;-70
2023/03/22 11:31:54;;;;;;;1.53;1.53;;;15.50;99.90;;;;;;4887867;29;20493;-70
2023/03/22 11:34:23;;;;;;;1.40;1.40;;;15.50;99.90;;;;;;4874807;29;20476;-69
2023/03/22 11:36:55;;;;;;;0.80;0.80;;;15.40;99.90;;;;;;4895839;29;20534;-69
2023/03/22 11:39:23;;;;;;;0.60;0.60;;;15.40;99.90;;;;;;4889142;29;20487;-69
2023/03/22 11:41:52;;;;;;;1.13;1.10;;;15.40;99.90;;;;;;4896096;29;20487;-68
2023/03/22 11:44:21;;;;;;;1.07;1.07;;;15.40;99.90;;;;;;4897569;29;20477;-69
2023/03/22 11:46:51;;;;;;;1.33;1.23;;;15.40;99.90;;;;;;4899193;29;20469;-69
2023/03/22 11:49:19;;;;;;;1.43;1.43;;;15.50;99.90;;;;;;4903649;29;20500;-70
2023/03/22 11:51:46;;;;;;;1.47;1.33;;;15.50;99.90;;;;;;4891875;29;20496;-69
2023/03/22 11:54:21;;;;;;;1.07;0.97;;;15.50;99.90;;;;;;4887923;29;20464;-69
2023/03/22 11:56:51;;;;;;;0.97;0.97;;;15.50;99.90;;;;;;4899981;29;20451;-69
2023/03/22 11:59:24;;;;;;;3.60;1.77;;;15.40;99.90;;;;;;4904994;29;20495;-68
2023/03/22 12:01:57;;;;;;;1.20;1.20;;;15.40;99.90;;;;;;4890575;29;20917;-69
2023/03/22 12:04:27;;;;;;;3.33;1.93;;;15.40;99.90;;;;;;4865765;29;20545;-69
2023/03/22 12:06:56;;;;;;;1.53;1.10;;;15.50;99.90;;;;;;4883883;29;20464;-69
2023/03/22 12:09:34;;;;;;;0.70;0.70;;;15.50;99.90;;;;;;4876219;29;21574;-70
2023/03/22 12:12:05;;;;;;;0.80;0.80;;;15.40;99.90;;;;;;4872909;29;20844;-69
2023/03/22 12:14:39;;;;;;;1.40;1.30;;;15.30;99.90;;;;;;4878582;29;20468;-69
2023/03/22 12:17:10;;;;;;;0.90;0.90;;;15.30;99.90;;;;;;4878858;29;20456;-68
2023/03/22 12:19:46;;;;;;;0.80;0.80;;;15.20;99.90;;;;;;4880445;29;20500;-70
2023/03/22 12:22:15;;;;;;;1.50;0.90;;;15.30;99.90;;;;;;4878841;29;20842;-68
2023/03/22 12:24:42;;;;;;;1.43;1.43;;;15.40;99.90;;;;;;4869008;29;20472;-68
2023/03/22 12:27:17;;;;;;;0.87;0.87;;;15.50;99.90;;;;;;4870639;29;20483;-70
2023/03/22 12:29:49;;;;;;;0.87;0.87;;;15.50;99.90;;;;;;4878594;29;20490;-70
2023/03/22 12:32:19;;;;;;;1.00;1.00;;;15.60;99.90;;;;;;4877378;29;21107;-70
2023/03/22 12:34:49;;;;;;;3.63;1.00;;;15.80;99.90;;;;;;4874791;29;20560;-70
2023/03/22 12:37:20;;;;;;;2.67;1.60;;;16.00;99.90;;;;;;4877503;29;20500;-68
2023/03/22 12:39:51;;;;;;;1.00;0.97;;;15.90;99.90;;;;;;4877562;29;20842;-69
2023/03/22 12:42:23;;;;;;;1.20;1.20;;;15.90;99.90;;;;;;4871356;29;20802;-69
2023/03/22 12:44:54;;;;;;;1.13;1.13;;;15.90;99.90;;;;;;4872374;29;20475;-69
2023/03/22 12:47:27;;;;;;;2.20;1.50;;;15.90;99.90;;;;;;4875365;29;20477;-69
2023/03/22 12:50:00;;;;;;;1.50;1.40;;;15.80;99.90;;;;;;4875288;29;20492;-70
2023/03/22 12:52:33;;;;;;;2.57;1.93;;;15.80;99.90;;;;;;4875958;29;20476;-69
2023/03/22 12:55:01;;;;;;;1.70;1.70;;;15.80;99.90;;;;;;4872208;29;20978;-69
2023/03/22 12:57:29;;;;;;;2.23;2.13;;;15.80;99.90;;;;;;4868098;29;20480;-68
2023/03/22 12:59:59;;;;;;;3.20;1.43;;;15.90;99.90;;;;;;4862659;29;20504;-70
2023/03/22 13:02:29;;;;;;;0.93;0.93;;;15.80;99.90;;;;;;4874571;29;20962;-69
2023/03/22 13:04:57;;;;;;;2.70;2.50;;;15.90;99.90;;;;;;4871576;29;20472;-69
2023/03/22 13:07:38;;;;;;;2.43;2.13;;;15.80;99.90;;;;;;4876731;29;20468;-69
2023/03/22 13:10:49;;;;;;;2.43;1.30;;;15.70;99.90;;;;;;4872747;29;20911;-69
2023/03/22 13:13:32;;;;;;;3.10;2.00;;;15.70;99.90;;;;;;4876464;29;21020;-69
2023/03/22 13:16:02;;;;;;;1.77;1.67;;;15.70;99.90;;;;;;4865766;29;20477;-69
2023/03/22 13:18:37;;;;;;;1.20;1.20;;;15.60;99.90;;;;;;4870730;29;21009;-69
2023/03/22 13:21:12;;;;;;;1.23;1.23;;;15.60;99.90;;;;;;4868443;29;20506;-69
2023/03/22 13:23:54;;;;;;;2.70;2.10;;;15.60;99.90;;;;;;4871961;29;20496;-69
2023/03/22 13:26:28;;;;;;;1.90;1.90;;;15.60;99.90;;;;;;4874944;29;20472;-68
2023/03/22 13:28:58;;;;;;;7.03;2.37;;;15.50;99.90;;;;;;4874186;29;20496;-69
2023/03/22 13:31:38;;;;;;;1.30;1.30;;;15.40;99.90;;;;;;4867558;29;20571;-68
2023/03/22 13:34:13;;;;;;;1.60;1.50;;;15.50;99.90;;;;;;4870962;29;20552;-68
2023/03/22 13:36:48;;;;;;;1.93;1.83;;;15.50;99.90;;;;;;4871843;29;20475;-68
2023/03/22 13:39:16;;;;;;;1.50;1.50;;;15.50;99.90;;;;;;4867766;29;20495;-69
2023/03/22 13:41:45;;;;;;;4.27;1.73;;;15.50;99.90;;;;;;4866432;29;20473;-68
2023/03/22 13:44:28;;;;;;;1.23;1.20;;;15.50;99.90;;;;;;4865391;29;20499;-69
2023/03/22 13:46:59;;;;;;;1.37;1.37;;;15.40;99.90;;;;;;4869303;29;20468;-70
2023/03/22 13:49:43;;;;;;;1.63;1.63;;;15.40;99.90;;;;;;4863950;29;20504;-70
2023/03/22 13:52:28;;;;;;;0.97;0.97;;;15.30;99.90;;;;;;4870566;29;20935;-69
2023/03/22 13:54:58;;;;;;;1.93;1.83;;;15.40;99.90;;;;;;4866760;29;20500;-68
2023/03/22 13:57:55;;;;;;;3.80;1.57;;;15.40;99.90;;;;;;4877099;29;20528;-68
2023/03/22 14:00:46;;;;;;;0.97;0.97;;;15.30;99.90;;;;;;4872866;29;20496;-68
2023/03/22 14:03:26;;;;;;;3.10;2.03;;;15.20;99.90;;;;;;4864676;29;20561;-68
2023/03/22 14:06:03;;;;;;;1.47;1.37;;;15.00;99.90;;;;;;4870958;29;20475;-69
2023/03/22 14:08:32;;;;;;;1.10;1.10;;;14.90;99.90;;;;;;4876497;29;20519;-68
2023/03/22 14:11:07;;;;;;;5.93;1.60;;;14.90;99.90;;;;;;4866797;29;20651;-70
2023/03/22 14:13:37;;;;;;;1.23;1.23;;;14.90;99.90;;;;;;4867065;29;20491;-68
2023/03/22 14:16:12;;;;;;;0.60;0.60;;;14.70;99.90;;;;;;4875886;29;20480;-70
2023/03/22 14:18:42;;;;;;;1.87;1.77;;;14.60;99.90;;;;;;4875018;29;20499;-68
2023/03/22 14:21:15;;;;;;;0.97;0.97;;;14.40;99.90;;;;;;4876760;29;20496;-69
2023/03/22 14:23:45;;;;;;;1.67;1.50;;;14.40;99.90;;;;;;4868524;29;20469;-69
2023/03/22 14:26:17;;;;;;;0.97;0.73;;;14.30;99.90;;;;;;4870657;29;20480;-68
2023/03/22 14:28:44;;;;;;;2.17;1.97;;;14.30;99.90;;;;;;4866931;29;20516;-70
2023/03/22 14:31:19;;;;;;;1.57;1.57;;;14.20;99.90;;;;;;4872267;29;21042;-70
2023/03/22 14:33:46;;;;;;;1.17;1.17;;;14.20;99.90;;;;;;4876763;29;20495;-70
2023/03/22 14:36:15;;;;;;;0.93;0.93;;;14.10;99.90;;;;;;4876112;29;20476;-70
2023/03/22 14:38:45;;;;;;;1.27;1.27;;;14.10;99.90;;;;;;4874969;29;20496;-70
2023/03/22 14:41:14;;;;;;;1.10;1.00;;;14.10;99.90;;;;;;4874648;29;20468;-69
2023/03/22 14:43:42;;;;;;;1.37;1.27;;;14.00;99.90;;;;;;4857916;29;20469;-69
2023/03/22 14:46:16;;;;;;;5.30;1.37;;;14.00;99.90;;;;;;4874086;29;20472;-70
2023/03/22 14:48:51;;;;;;;1.70;0.90;;;14.00;99.90;;;;;;4877087;29;20494;-69
2023/03/22 14:51:20;;;;;;;2.53;2.43;;;14.00;99.90;;;;;;4875596;29;20520;-69
2023/03/22 14:53:48;;;;;;;1.17;1.07;;;13.90;99.90;;;;;;4876602;29;20503;-69
2023/03/22 14:56:20;;;;;;;2.33;1.50;;;14.00;99.90;;;;;;4875733;29;20472;-69
2023/03/22 14:58:50;;;;;;;4.33;1.80;;;13.90;99.90;;;;;;4873273;29;21009;-68
2023/03/22 15:01:24;;;;;;;1.03;1.03;;;13.90;99.90;;;;;;4875927;29;20476;-71
2023/03/22 15:03:57;;;;;;;1.83;1.73;;;13.90;99.90;;;;;;4876459;29;20815;-69
2023/03/22 15:06:25;;;;;;;1.50;1.50;;;13.80;99.90;;;;;;4875141;29;20507;-69
2023/03/22 15:08:52;;;;;;;1.40;1.40;;;13.80;99.90;;;;;;4876349;29;20488;-69
2023/03/22 15:11:20;;;;;;;1.87;1.40;;;13.80;99.90;;;;;;4875808;29;20476;-70
2023/03/22 15:13:50;;;;;;;1.70;1.60;;;13.80;99.90;;;;;;4874902;29;20488;-69
2023/03/22 15:16:19;;;;;;;1.60;1.50;;;13.90;99.90;;;;;;4870349;29;20476;-69
2023/03/22 15:18:48;;;;;;;2.03;1.60;;;14.00;99.90;;;;;;4864074;29;20531;-69
2023/03/22 15:21:15;;;;;;;1.03;1.03;;;13.90;99.90;;;;;;4874796;29;20506;-69
2023/03/22 15:23:48;;;;;;;0.97;0.97;;;13.90;99.90;;;;;;4866692;29;20465;-69
2023/03/22 15:26:18;;;;;;;1.03;1.03;;;13.90;99.90;;;;;;4877062;29;20480;-68
2023/03/22 15:28:50;;;;;;;2.00;1.67;;;13.90;99.90;;;;;;4871720;29;20494;-68
2023/03/22 15:31:24;;;;;;;1.47;1.47;;;13.90;99.90;;;;;;4879144;29;20512;-69
2023/03/22 15:33:53;;;;;;;1.80;1.40;;;13.80;99.90;;;;;;4879190;29;20515;-69
2023/03/22 15:36:21;;;;;;;1.30;1.20;;;13.80;99.90;;;;;;4878680;29;20479;-69
2023/03/22 15:38:50;;;;;;;2.27;2.10;;;13.80;99.90;;;;;;4877829;29;20496;-70
2023/03/22 15:41:23;;;;;;;1.60;1.47;;;13.80;99.90;;;;;;4868199;29;20977;-69
2023/03/22 15:44:00;;;;;;;2.77;1.97;;;13.80;99.90;;;;;;4877026;29;20483;-70
2023/03/22 15:46:30;;;;;;;0.80;0.80;;;13.80;99.90;;;;;;4877859;29;20866;-69
2023/03/22 15:49:00;;;;;;;3.87;1.97;;;13.80;99.90;;;;;;4868405;29;20547;-70
2023/03/22 15:51:30;;;;;;;1.10;1.10;;;13.80;99.90;;;;;;4878741;29;20476;-68
2023/03/22 15:54:04;;;;;;;1.10;1.10;;;13.70;99.90;;;;;;4878859;29;20515;-70
2023/03/22 15:56:34;;;;;;;1.80;1.30;;;13.70;99.90;;;;;;4876463;29;20471;-69
2023/03/22 15:59:03;;;;;;;1.00;1.00;;;13.70;99.90;;;;;;4871802;29;20492;-70
2023/03/22 16:01:41;;;;;;;1.30;1.30;;;13.80;99.90;;;;;;4879181;29;20477;-69
2023/03/22 16:04:17;;;;;;;1.70;1.70;;;13.80;99.90;;;;;;4875407;29;20941;-68
2023/03/22 16:06:44;;;;;;;10.60;2.60;;;13.70;99.90;;;;;;4878384;29;20988;-68
2023/03/22 16:09:10;;;;;;;2.17;1.97;;;13.80;99.90;;;;;;4878258;29;20496;-69
2023/03/22 16:11:37;;;;;;;1.60;1.50;;;13.80;99.90;;;;;;4879114;29;20823;-69
2023/03/22 16:14:04;;;;;;;2.07;1.77;;;13.70;99.90;;;;;;4876863;29;21035;-69
2023/03/22 16:16:31;;;;;;;1.27;1.10;;;13.70;99.90;;;;;;4878436;29;20995;-69
2023/03/22 16:18:59;;;;;;;0.90;0.90;;;13.70;99.90;;;;;;4878636;29;20874;-68
2023/03/22 16:21:29;;;;;;;4.43;1.07;;;13.70;99.90;;;;;;4874254;29;20848;-68
2023/03/22 16:23:56;;;;;;;0.93;0.93;;;13.70;99.90;;;;;;4873346;29;20465;-67
2023/03/22 16:26:22;;;;;;;0.90;0.87;;;13.60;99.90;;;;;;4877810;29;20468;-69
2023/03/22 16:28:49;;;;;;;1.80;0.70;;;13.60;99.90;;;;;;4874078;29;20480;-69
2023/03/22 16:31:18;;;;;;;0.60;0.60;;;13.60;99.90;;;;;;4873874;29;20468;-68
2023/03/22 16:33:46;;;;;;;2.10;2.00;;;13.60;99.90;;;;;;4860074;29;20497;-69
2023/03/22 16:36:16;;;;;;;1.57;1.57;;;13.50;99.90;;;;;;4877247;29;20499;-69
2023/03/22 16:38:43;;;;;;;0.70;0.70;;;13.50;99.90;;;;;;4872395;29;20496;-71
2023/03/22 16:41:20;;;;;;;1.00;1.00;;;13.50;99.90;;;;;;4872414;29;21061;-70
2023/03/22 16:43:47;;;;;;;0.67;0.67;;;13.50;99.90;;;;;;4870869;29;20475;-69
2023/03/22 16:46:14;;;;;;;1.00;0.93;;;13.50;99.90;;;;;;4868800;29;20484;-70
2023/03/22 16:48:41;;;;;;;0.80;0.80;;;13.50;99.90;;;;;;4877889;29;20843;-70
2023/03/22 16:51:18;;;;;;;5.50;0.93;;;13.40;99.90;;;;;;4872988;29;20508;-70
2023/03/22 16:53:45;;;;;;;0.50;0.50;;;13.40;99.90;;;;;;4871215;29;21017;-68
2023/03/22 16:56:14;;;;;;;11.50;2.00;;;13.40;99.90;;;;;;4875530;29;20957;-70
2023/03/22 16:58:40;;;;;;;0.43;0.43;;;13.30;99.90;;;;;;4875493;29;20591;-69
2023/03/22 17:01:11;;;;;;;1.07;0.30;;;13.20;99.90;;;;;;4869642;29;20849;-69
2023/03/22 17:03:38;;;;;;;0.60;0.60;;;13.10;99.90;;;;;;4867707;29;20467;-69
2023/03/22 17:06:05;;;;;;;1.07;1.07;;;13.10;99.90;;;;;;4870742;29;21147;-69
2023/03/22 17:08:33;;;;;;;0.70;0.70;;;13.00;99.90;;;;;;4877358;29;20511;-69
2023/03/22 17:11:00;;;;;;;1.43;1.43;;;13.00;99.90;;;;;;4878877;29;20471;-69
2023/03/22 17:13:27;;;;;;;1.07;1.07;;;12.90;99.90;;;;;;4871942;29;20823;-69
2023/03/22 17:15:53;;;;;;;0.60;0.60;;;12.90;99.90;;;;;;4873179;29;20599;-69
2023/03/22 17:18:20;;;;;;;0.77;0.77;;;12.90;99.90;;;;;;4866695;29;20474;-68
2023/03/22 17:20:48;;;;;;;0.83;0.80;;;12.80;99.90;;;;;;4873735;29;20464;-68
2023/03/22 17:23:15;;;;;;;2.63;1.80;;;12.70;99.90;;;;;;4871233;29;20556;-68
2023/03/22 17:25:46;;;;;;;0.63;0.63;;;12.70;99.90;;;;;;4866544;29;20954;-69
2023/03/22 17:28:13;;;;;;;2.00;1.50;;;12.70;99.90;;;;;;4864515;29;20896;-68
2023/03/22 17:30:40;;;;;;;0.57;0.57;;;12.70;99.90;;;;;;4872066;29;20483;-70
2023/03/22 17:33:08;;;;;;;0.90;0.90;;;12.60;99.90;;;;;;4868432;29;20485;-68
2023/03/22 17:35:35;;;;;;;0.80;0.80;;;12.60;99.90;;;;;;4873724;29;20470;-69
2023/03/22 17:38:02;;;;;;;3.50;1.67;;;12.60;99.90;;;;;;4873752;29;20988;-69
2023/03/22 17:40:30;;;;;;;1.67;1.43;;;12.60;99.90;;;;;;4867344;29;21039;-69
2023/03/22 17:42:58;;;;;;;1.37;1.37;;;12.60;99.90;;;;;;4872465;29;20555;-68
2023/03/22 17:45:27;;;;;;;0.60;0.60;;;12.60;99.90;;;;;;4875766;29;20472;-68
2023/03/22 17:47:54;;;;;;;3.93;2.70;;;12.60;99.90;;;;;;4874949;29;20992;-69
2023/03/22 17:50:24;;;;;;;1.90;1.03;;;12.60;99.90;;;;;;4874911;29;20488;-69
2023/03/22 17:52:51;;;;;;;1.27;1.27;;;12.60;99.90;;;;;;4868034;29;20537;-68
2023/03/22 17:55:20;;;;;;;1.23;1.20;;;12.50;99.90;;;;;;4866686;29;20500;-68
2023/03/22 17:57:47;;;;;;;3.63;3.30;;;12.50;99.90;;;;;;4871608;29;20491;-69
2023/03/22 18:00:17;;;;;;;7.20;2.93;;;12.50;99.90;;;;;;4875673;29;20499;-67